Terminal Aerodrome Forecast
Issued by NWS Wilmington, OH

Current Version | Previous Version | Graphics & Text | Print | Product List | Glossary On
Versions: 1 2 3 4 5 6 7 8 9 10 11 12 13 14 15 16 17 18 19 20
539
FTUS41 KILN 210540
TAFILN
TAF
KILN 210540Z 2106/2206 19005KT 1SM -DZ BR SCT006 OVC020
     FM210800 20007KT 3SM BR SCT006 OVC020
      TEMPO 2110/2112 OVC006
     FM211800 20010KT P6SM OVC015
     FM212300 19008KT 5SM BR VCSH OVC010
      TEMPO 2200/2204 3SM BR OVC008=

USA.gov is the U.S. government's official web portal to all federal, state and local government web resources and services.